createdAt,value
2019-03-15T00:00:13.017Z,93890.70
2019-03-15T00:02:42.614Z,93889.15
2019-03-15T00:05:12.077Z,93886.41
2019-03-15T00:07:41.509Z,93883.81
2019-03-15T00:10:11.203Z,93881.58
2019-03-15T00:12:40.552Z,93885.73
2019-03-15T00:15:09.974Z,93882.17
2019-03-15T00:17:39.468Z,93879.69
2019-03-15T00:20:09.427Z,93882.59
2019-03-15T00:22:38.897Z,93875.48
2019-03-15T00:25:08.390Z,93882.80
2019-03-15T00:27:37.777Z,93881.81
2019-03-15T00:30:08.364Z,93879.17
2019-03-15T00:32:37.743Z,93883.20
2019-03-15T00:35:07.602Z,93883.28
2019-03-15T00:37:36.992Z,93886.13
2019-03-15T00:40:08.240Z,93886.23
2019-03-15T00:42:37.598Z,93888.98
2019-03-15T00:45:08.337Z,93887.33
2019-03-15T00:47:38.125Z,93884.45
2019-03-15T00:50:08.395Z,93886.11
2019-03-15T00:52:37.828Z,93870.69
2019-03-15T00:55:07.812Z,93871.64
2019-03-15T00:57:37.163Z,93871.73
2019-03-15T01:00:08.615Z,93863.89
2019-03-15T01:02:38.071Z,93866.83
2019-03-15T01:05:07.549Z,93864.41
2019-03-15T01:07:37.001Z,93864.10
2019-03-15T01:10:06.440Z,93860.22
2019-03-15T01:12:35.817Z,93858.94
2019-03-15T01:15:05.319Z,93857.94
2019-03-15T01:17:34.802Z,93858.42
2019-03-15T01:20:04.344Z,93855.23
2019-03-15T01:22:33.802Z,93860.89
2019-03-15T01:25:03.163Z,93854.53
2019-03-15T01:27:32.817Z,93856.49
2019-03-15T01:30:02.242Z,93852.80
2019-03-15T01:32:31.666Z,93855.55
2019-03-15T01:35:00.989Z,93852.14
2019-03-15T01:37:30.432Z,93854.94
2019-03-15T01:40:00.811Z,93850.50
2019-03-15T01:42:30.670Z,93847.05
2019-03-15T01:45:00.173Z,93846.47
2019-03-15T01:47:29.637Z,93839.27
2019-03-15T01:49:59.059Z,93836.95
2019-03-15T01:52:28.484Z,93839.77
2019-03-15T01:54:57.882Z,93832.44
2019-03-15T01:57:27.326Z,93832.27
2019-03-15T01:59:56.755Z,93833.37
2019-03-15T02:02:26.171Z,93828.23
2019-03-15T02:04:55.607Z,93828.66
2019-03-15T02:07:25.011Z,93826.11
2019-03-15T02:09:54.409Z,93822.27
2019-03-15T02:12:23.835Z,93822.47
2019-03-15T02:14:53.553Z,93819.20
2019-03-15T02:17:23.078Z,93819.11
2019-03-15T02:19:52.469Z,93820.85
2019-03-15T02:22:21.803Z,93822.63
2019-03-15T02:24:51.211Z,93824.49
2019-03-15T02:27:20.595Z,93817.46
2019-03-15T02:29:49.988Z,93822.30
2019-03-15T02:32:19.381Z,93825.08
2019-03-15T02:34:48.825Z,93827.21
2019-03-15T02:37:18.194Z,93830.39
2019-03-15T02:39:47.627Z,93827.61
2019-03-15T02:42:17.021Z,93836.39
2019-03-15T02:44:46.446Z,93834.27
2019-03-15T02:47:15.867Z,93839.69
2019-03-15T02:49:45.291Z,93843.44
2019-03-15T02:52:15.804Z,93842.64
2019-03-15T02:54:45.443Z,93847.47
2019-03-15T02:57:14.810Z,93844.36
2019-03-15T02:59:44.189Z,93846.14
2019-03-15T03:02:13.616Z,93849.34
2019-03-15T03:04:43.011Z,93852.21
2019-03-15T03:07:12.431Z,93856.54
2019-03-15T03:09:41.884Z,93854.20
2019-03-15T03:12:11.293Z,93860.23
2019-03-15T03:14:40.698Z,93853.45
2019-03-15T03:17:10.217Z,93862.14
2019-03-15T03:19:39.619Z,93862.53
2019-03-15T03:22:09.402Z,93859.84
2019-03-15T03:24:38.809Z,93865.86
2019-03-15T03:27:08.225Z,93861.95
2019-03-15T03:29:37.648Z,93860.88
2019-03-15T03:32:07.142Z,93860.88
2019-03-15T03:34:36.563Z,93865.81
2019-03-15T03:37:06.022Z,93863.99
2019-03-15T03:39:35.510Z,93867.38
2019-03-15T03:42:04.952Z,93871.77
2019-03-15T03:44:34.368Z,93871.53
2019-03-15T03:47:03.758Z,93876.15
2019-03-15T03:49:33.101Z,93877.78
2019-03-15T03:52:02.725Z,93875.53
2019-03-15T03:54:32.335Z,93875.61
2019-03-15T03:57:01.921Z,93876.06
2019-03-15T03:59:31.318Z,93878.09
2019-03-15T04:02:00.693Z,93880.94
2019-03-15T04:04:30.078Z,93878.72
2019-03-15T04:06:59.477Z,93877.01
2019-03-15T04:09:28.883Z,93873.14
2019-03-15T04:11:58.227Z,93875.53
2019-03-15T04:14:27.597Z,93879.31
2019-03-15T04:16:57.192Z,93880.88
2019-03-15T04:19:26.586Z,93881.68
2019-03-15T04:21:55.960Z,93884.67
2019-03-15T04:24:25.305Z,93884.92
2019-03-15T04:26:54.704Z,93891.13
2019-03-15T04:29:24.115Z,93888.25
2019-03-15T04:31:53.517Z,93890.27
2019-03-15T04:34:22.921Z,93887.77
2019-03-15T04:36:52.299Z,93890.75
2019-03-15T04:39:21.654Z,93893.51
2019-03-15T04:41:51.032Z,93895.26
2019-03-15T04:44:20.426Z,93893.84
2019-03-15T04:46:49.787Z,93894.83
2019-03-15T04:49:19.199Z,93901.36
2019-03-15T04:51:48.562Z,93900.28
2019-03-15T04:54:17.960Z,93894.76
2019-03-15T04:56:47.340Z,93907.16
2019-03-15T04:59:16.705Z,93912.13
2019-03-15T05:01:46.096Z,93909.84
2019-03-15T05:04:15.468Z,93904.94
2019-03-15T05:06:44.883Z,93915.17
2019-03-15T05:09:14.257Z,93918.53
2019-03-15T05:11:43.628Z,93917.47
2019-03-15T05:14:13.033Z,93918.81
2019-03-15T05:16:42.382Z,93922.31
2019-03-15T05:19:11.782Z,93924.48
2019-03-15T05:21:41.156Z,93926.28
2019-03-15T05:24:10.570Z,93933.09
2019-03-15T05:26:39.964Z,93933.78
2019-03-15T05:29:09.361Z,93933.69
2019-03-15T05:31:38.752Z,93937.12
2019-03-15T05:34:08.145Z,93939.50
2019-03-15T05:36:37.542Z,93943.89
2019-03-15T05:39:07.603Z,93945.83
2019-03-15T05:41:36.979Z,93947.77
2019-03-15T05:44:06.372Z,93949.33
2019-03-15T05:46:35.751Z,93949.81
2019-03-15T05:49:05.234Z,93948.80
2019-03-15T05:51:34.642Z,93952.73
2019-03-15T05:54:04.028Z,93953.48
2019-03-15T05:56:33.377Z,93960.64
2019-03-15T05:59:02.795Z,93957.34
2019-03-15T06:01:32.137Z,93960.30
2019-03-15T06:04:01.609Z,93968.39
2019-03-15T06:06:30.989Z,93965.50
2019-03-15T06:09:00.387Z,93970.52
2019-03-15T06:11:29.789Z,93966.04
2019-03-15T06:13:59.185Z,93965.91
2019-03-15T06:16:28.574Z,93968.14
2019-03-15T06:18:57.975Z,93965.57
2019-03-15T06:21:27.379Z,93969.77
2019-03-15T06:23:56.747Z,93973.92
2019-03-15T06:26:26.105Z,93970.81
2019-03-15T06:28:55.468Z,93976.68
2019-03-15T06:31:24.840Z,93978.81
2019-03-15T06:33:54.192Z,93979.59
2019-03-15T06:36:23.531Z,93980.13
2019-03-15T06:38:53.038Z,93977.78
2019-03-15T06:41:22.401Z,93983.20
2019-03-15T06:43:51.853Z,93986.46
2019-03-15T06:46:21.227Z,93990.50
2019-03-15T06:48:50.668Z,93991.45
2019-03-15T06:51:20.048Z,93994.75
2019-03-15T06:53:49.397Z,93996.59
2019-03-15T06:56:18.755Z,93998.10
2019-03-15T06:58:48.156Z,93996.70
2019-03-15T07:01:17.548Z,93999.02
2019-03-15T07:03:46.935Z,94000.17
2019-03-15T07:06:16.359Z,93998.38
2019-03-15T07:08:45.756Z,93997.94
2019-03-15T07:11:15.111Z,94003.30
2019-03-15T07:13:44.583Z,94005.28
2019-03-15T07:16:13.984Z,93999.86
2019-03-15T07:18:43.375Z,93995.75
2019-03-15T07:21:13.744Z,93997.23
2019-03-15T07:23:43.228Z,94006.50
2019-03-15T07:26:12.720Z,94008.76
2019-03-15T07:28:42.120Z,94011.41
2019-03-15T07:31:11.552Z,94007.05
2019-03-15T07:33:40.911Z,94002.36
2019-03-15T07:36:10.290Z,94000.98
2019-03-15T07:38:39.684Z,93996.50
2019-03-15T07:41:09.074Z,93990.02
2019-03-15T07:43:38.473Z,93991.91
2019-03-15T07:46:07.868Z,93990.80
2019-03-15T07:48:37.226Z,93986.16
2019-03-15T07:51:06.614Z,93990.25
2019-03-15T07:53:35.979Z,93994.77
2019-03-15T07:56:05.585Z,93990.70
2019-03-15T07:58:34.975Z,93989.66
2019-03-15T08:01:04.391Z,93991.45
2019-03-15T08:03:33.795Z,93996.08
2019-03-15T08:06:03.245Z,93995.08
2019-03-15T08:08:32.798Z,94003.41
2019-03-15T08:11:02.345Z,94003.41
2019-03-15T08:13:31.768Z,94005.38
2019-03-15T08:16:01.209Z,94000.43
2019-03-15T08:18:30.583Z,94012.50
2019-03-15T08:20:59.983Z,94005.77
2019-03-15T08:23:29.424Z,94014.55
2019-03-15T08:25:58.829Z,94015.52
2019-03-15T08:28:28.208Z,94020.27
2019-03-15T08:30:57.616Z,94015.61
2019-03-15T08:33:27.008Z,94021.27
2019-03-15T08:35:56.433Z,94017.89
2019-03-15T08:38:25.810Z,94016.56
2019-03-15T08:40:55.189Z,94019.00
2019-03-15T08:43:24.564Z,94016.60
2019-03-15T08:45:53.967Z,94012.73
2019-03-15T08:48:23.378Z,94008.03
2019-03-15T08:50:52.851Z,94012.05
2019-03-15T08:53:22.250Z,94013.01
2019-03-15T08:55:51.680Z,94010.11
2019-03-15T08:58:22.329Z,94004.45
2019-03-15T09:00:52.019Z,94000.73
2019-03-15T09:03:28.064Z,94006.70
2019-03-15T09:05:52.999Z,94006.53
2019-03-15T09:08:22.427Z,94005.73
2019-03-15T09:10:51.831Z,94010.59
2019-03-15T09:13:21.233Z,94013.49
2019-03-15T09:15:50.851Z,94010.86
2019-03-15T09:18:20.305Z,94012.01
2019-03-15T09:20:49.695Z,94012.34
2019-03-15T09:23:19.065Z,94011.53
2019-03-15T09:25:48.451Z,94008.31
2019-03-15T09:28:17.826Z,94004.59
2019-03-15T09:30:47.267Z,94009.73
2019-03-15T09:33:16.659Z,94004.26
2019-03-15T09:35:45.998Z,94012.00
2019-03-15T09:38:17.726Z,93999.05
2019-03-15T09:40:47.082Z,93996.70
2019-03-15T09:43:16.472Z,94002.84
2019-03-15T09:45:45.876Z,93997.68
2019-03-15T09:48:15.236Z,94000.17
2019-03-15T09:50:51.255Z,93991.19
2019-03-15T09:53:15.696Z,94018.13
2019-03-15T09:55:45.080Z,93998.88
2019-03-15T09:58:14.454Z,93991.00
2019-03-15T10:00:43.863Z,93992.14
2019-03-15T10:03:21.996Z,94001.31
2019-03-15T10:05:44.395Z,94005.35
2019-03-15T10:08:13.752Z,93993.60
2019-03-15T10:10:43.151Z,93992.93
2019-03-15T10:13:12.511Z,93990.88
2019-03-15T10:15:41.870Z,93995.03
2019-03-15T10:18:11.334Z,94005.22
2019-03-15T10:20:40.682Z,94004.20
2019-03-15T10:23:10.063Z,93995.77
2019-03-15T10:25:46.915Z,93995.56
2019-03-15T10:28:10.529Z,94006.06
2019-03-15T10:30:39.889Z,93993.23
2019-03-15T10:33:09.247Z,93992.09
2019-03-15T10:35:38.624Z,93978.41
2019-03-15T10:38:08.035Z,93985.88
2019-03-15T10:40:37.392Z,93976.81
2019-03-15T10:43:06.768Z,93970.28
2019-03-15T10:45:36.158Z,93970.31
2019-03-15T10:48:08.073Z,93965.73
2019-03-15T10:50:36.668Z,93958.72
2019-03-15T10:53:06.070Z,93956.38
2019-03-15T10:55:35.472Z,93961.52
2019-03-15T10:58:04.849Z,93964.92
2019-03-15T11:00:34.232Z,93962.73
2019-03-15T11:03:03.630Z,93949.52
2019-03-15T11:05:33.023Z,93943.77
2019-03-15T11:08:02.456Z,93957.00
2019-03-15T11:10:31.792Z,93947.56
2019-03-15T11:13:01.201Z,93941.58
2019-03-15T11:15:30.589Z,93941.11
2019-03-15T11:17:59.963Z,93931.18
2019-03-15T11:20:29.660Z,93952.30
2019-03-15T11:22:59.037Z,93960.26
2019-03-15T11:25:28.419Z,93933.10
2019-03-15T11:27:57.795Z,93931.50
2019-03-15T11:30:27.213Z,93934.34
2019-03-15T11:32:56.561Z,93921.16
2019-03-15T11:35:25.990Z,93923.05
2019-03-15T11:37:55.362Z,93921.80
2019-03-15T11:40:24.779Z,93933.86
2019-03-15T11:42:54.189Z,93930.09
2019-03-15T11:45:23.585Z,93919.30
2019-03-15T11:48:03.282Z,93921.33
2019-03-15T11:50:24.065Z,93918.03
2019-03-15T11:52:53.633Z,93923.47
2019-03-15T11:55:23.105Z,93915.38
2019-03-15T11:57:52.666Z,93913.16
2019-03-15T12:00:22.071Z,93906.17
2019-03-15T12:02:51.470Z,93896.55
2019-03-15T12:05:20.884Z,93907.55
2019-03-15T12:07:50.294Z,93902.33
2019-03-15T12:10:19.727Z,93905.05
2019-03-15T12:12:49.171Z,93905.78
2019-03-15T12:15:18.524Z,93905.33
2019-03-15T12:17:47.916Z,93895.09
2019-03-15T12:20:17.367Z,93894.58
2019-03-15T12:22:46.782Z,93899.72
2019-03-15T12:25:16.169Z,93884.36
2019-03-15T12:27:45.549Z,93886.14
2019-03-15T12:30:14.963Z,93898.00
2019-03-15T12:32:44.341Z,93878.20
2019-03-15T12:35:13.704Z,93881.25
2019-03-15T12:37:43.170Z,93875.11
2019-03-15T12:40:12.723Z,93876.71
2019-03-15T12:42:42.086Z,93872.45
2019-03-15T12:45:11.677Z,93873.06
2019-03-15T12:47:41.142Z,93875.56
2019-03-15T12:50:10.639Z,93873.13
2019-03-15T12:52:46.994Z,93861.91
2019-03-15T12:55:11.163Z,93867.36
2019-03-15T12:57:40.631Z,93870.02
2019-03-15T13:00:12.274Z,93863.47
2019-03-15T13:02:41.563Z,93869.81
2019-03-15T13:05:11.180Z,93866.95
2019-03-15T13:07:40.531Z,93865.28
2019-03-15T13:10:11.481Z,93835.94
2019-03-15T13:12:40.786Z,93861.52
2019-03-15T13:15:11.959Z,93874.33
2019-03-15T13:17:41.343Z,93872.05
2019-03-15T13:20:11.330Z,93869.56
2019-03-15T13:22:40.742Z,93868.69
2019-03-15T13:25:10.208Z,93874.47
2019-03-15T13:27:39.601Z,93880.71
2019-03-15T13:30:09.306Z,93886.42
2019-03-15T13:32:38.648Z,93887.16
2019-03-15T13:35:08.149Z,93886.20
2019-03-15T13:37:37.653Z,93886.20
2019-03-15T13:40:07.764Z,93883.11
2019-03-15T13:42:37.185Z,93885.37
2019-03-15T13:45:07.702Z,93885.42
2019-03-15T13:47:37.143Z,93889.56
2019-03-15T13:50:07.637Z,93886.39
2019-03-15T13:52:37.061Z,93884.88
2019-03-15T13:55:06.714Z,93877.45
2019-03-15T13:57:36.076Z,93892.50
2019-03-15T14:00:06.265Z,93890.60
2019-03-15T14:02:35.630Z,93902.64
2019-03-15T14:05:05.410Z,93902.89
2019-03-15T14:07:34.904Z,93909.72
2019-03-15T14:10:04.405Z,93913.43
2019-03-15T14:12:33.753Z,93907.12
2019-03-15T14:15:03.126Z,93903.22
2019-03-15T14:17:32.530Z,93909.70
2019-03-15T14:20:01.908Z,93906.22
2019-03-15T14:22:31.305Z,93905.98
2019-03-15T14:25:00.819Z,93912.19
2019-03-15T14:27:37.373Z,93911.42
2019-03-15T14:30:01.377Z,93910.91
2019-03-15T14:32:30.792Z,93917.27
2019-03-15T14:35:00.369Z,93920.66
2019-03-15T14:37:29.800Z,93922.34
2019-03-15T14:39:59.234Z,93920.38
2019-03-15T14:42:28.668Z,93929.90
2019-03-15T14:44:58.163Z,93938.28
2019-03-15T14:47:27.466Z,93937.29
2019-03-15T14:49:56.814Z,93945.56
2019-03-15T14:52:26.179Z,93941.19
2019-03-15T14:54:55.575Z,93947.97
2019-03-15T14:57:24.920Z,93954.66
2019-03-15T14:59:54.296Z,93954.19
2019-03-15T15:02:25.896Z,93949.59
2019-03-15T15:04:55.247Z,93948.39
2019-03-15T15:07:24.608Z,93945.77
2019-03-15T15:09:53.937Z,93959.50
2019-03-15T15:12:25.527Z,93964.82
2019-03-15T15:14:57.494Z,93953.14
2019-03-15T15:17:25.990Z,93961.62
2019-03-15T15:19:55.346Z,93962.66
2019-03-15T15:22:27.761Z,93982.24
2019-03-15T15:24:57.124Z,93964.78
2019-03-15T15:27:26.541Z,93965.16
2019-03-15T15:29:55.933Z,93971.58
2019-03-15T15:32:25.347Z,93972.02
2019-03-15T15:34:55.464Z,93980.06
2019-03-15T15:37:24.812Z,93989.85
2019-03-15T15:39:54.169Z,93980.80
2019-03-15T15:42:25.569Z,93982.23
2019-03-15T15:44:54.909Z,93981.13
2019-03-15T15:47:24.256Z,94000.02
2019-03-15T15:49:53.617Z,93999.20
2019-03-15T15:52:23.390Z,93985.73
2019-03-15T15:54:52.732Z,94003.67
2019-03-15T15:57:22.106Z,93997.97
2019-03-15T15:59:51.469Z,94002.92
2019-03-15T16:02:20.840Z,94011.89
2019-03-15T16:04:50.341Z,94016.80
2019-03-15T16:07:19.700Z,94023.04
2019-03-15T16:09:49.076Z,94016.48
2019-03-15T16:12:18.428Z,94028.13
2019-03-15T16:14:47.763Z,94031.91
2019-03-15T16:17:17.147Z,94029.95
2019-03-15T16:19:46.592Z,94025.79
2019-03-15T16:22:16.927Z,94026.23
2019-03-15T16:24:46.298Z,94034.30
2019-03-15T16:27:16.154Z,94040.52
2019-03-15T16:29:45.536Z,94048.30
2019-03-15T16:32:15.019Z,94055.05
2019-03-15T16:34:44.374Z,94055.73
2019-03-15T16:37:13.739Z,94055.96
2019-03-15T16:39:43.239Z,94070.10
2019-03-15T16:42:12.603Z,94076.14
2019-03-15T16:44:42.323Z,94085.86
2019-03-15T16:47:11.813Z,94086.03
2019-03-15T16:49:43.188Z,94085.24
2019-03-15T16:52:12.545Z,94092.86
2019-03-15T16:54:41.931Z,94098.33
2019-03-15T16:57:11.313Z,94106.19
2019-03-15T16:59:40.681Z,94104.77
2019-03-15T17:02:10.031Z,94109.95
2019-03-15T17:04:39.438Z,94110.30
2019-03-15T17:07:08.840Z,94114.70
2019-03-15T17:09:38.173Z,94146.91
2019-03-15T17:12:07.558Z,94138.02
2019-03-15T17:14:37.107Z,94123.05
2019-03-15T17:17:06.485Z,94156.19
2019-03-15T17:19:35.948Z,94154.59
2019-03-15T17:22:05.333Z,94148.16
2019-03-15T17:24:34.720Z,94160.28
2019-03-15T17:27:08.228Z,94162.55
2019-03-15T17:29:37.604Z,94168.50
2019-03-15T17:32:07.040Z,94174.80
2019-03-15T17:34:48.871Z,94172.71
2019-03-15T17:37:18.219Z,94173.18
2019-03-15T17:39:47.674Z,94178.52
2019-03-15T17:42:16.964Z,94171.39
2019-03-15T17:44:46.416Z,94168.81
2019-03-15T17:47:15.787Z,94184.64
2019-03-15T17:49:45.184Z,94199.81
2019-03-15T17:52:14.572Z,94189.50
2019-03-15T17:54:43.920Z,94185.95
2019-03-15T17:57:13.327Z,94200.49
2019-03-15T17:59:52.141Z,94210.99
2019-03-15T18:02:21.711Z,94200.33
2019-03-15T18:04:51.146Z,94203.70
2019-03-15T18:07:20.554Z,94208.71
2019-03-15T18:09:49.887Z,94202.25
2019-03-15T18:12:19.286Z,94212.42
2019-03-15T18:14:48.655Z,94208.72
2019-03-15T18:17:18.021Z,94211.13
2019-03-15T18:19:47.453Z,94210.30
2019-03-15T18:22:16.844Z,94217.89
2019-03-15T18:24:46.194Z,94214.80
2019-03-15T18:27:15.539Z,94217.39
2019-03-15T18:29:44.950Z,94226.44
2019-03-15T18:32:14.324Z,94233.22
2019-03-15T18:34:43.723Z,94229.63
2019-03-15T18:37:13.116Z,94238.34
2019-03-15T18:39:42.558Z,94233.80
2019-03-15T18:42:12.009Z,94231.71
2019-03-15T18:44:41.380Z,94234.30
2019-03-15T18:47:12.933Z,94231.87
2019-03-15T18:49:42.404Z,94242.20
2019-03-15T18:52:11.779Z,94240.88
2019-03-15T18:54:41.168Z,94245.74
2019-03-15T18:57:10.516Z,94248.16
2019-03-15T18:59:40.555Z,94260.61
2019-03-15T19:02:10.226Z,94258.48
2019-03-15T19:04:39.591Z,94257.36
2019-03-15T19:07:09.033Z,94260.28
2019-03-15T19:09:38.470Z,94264.45
2019-03-15T19:12:07.844Z,94270.61
2019-03-15T19:14:37.245Z,94270.77
2019-03-15T19:17:06.632Z,94272.69
2019-03-15T19:19:36.014Z,94276.89
2019-03-15T19:22:05.464Z,94275.42
2019-03-15T19:24:34.895Z,94273.30
2019-03-15T19:27:04.296Z,94286.38
2019-03-15T19:29:33.679Z,94275.55
2019-03-15T19:32:03.528Z,94279.09
2019-03-15T19:34:32.886Z,94285.70
2019-03-15T19:37:02.732Z,94279.55
2019-03-15T19:39:32.080Z,94290.53
2019-03-15T19:42:01.473Z,94278.63
2019-03-15T19:44:30.827Z,94285.70
2019-03-15T19:47:00.227Z,94282.83
2019-03-15T19:49:29.632Z,94292.14
2019-03-15T19:52:01.172Z,94290.41
2019-03-15T19:54:31.948Z,94297.31
2019-03-15T19:57:01.680Z,94306.23
2019-03-15T19:59:31.033Z,94307.03
2019-03-15T20:02:01.488Z,94307.20
2019-03-15T20:04:30.849Z,94307.54
2019-03-15T20:07:00.194Z,94308.77
2019-03-15T20:09:29.566Z,94311.18
2019-03-15T20:11:58.956Z,94309.25
2019-03-15T20:14:28.331Z,94313.73
2019-03-15T20:16:57.820Z,94303.42
2019-03-15T20:19:27.636Z,94313.77
2019-03-15T20:21:57.065Z,94314.26
2019-03-15T20:24:26.621Z,94312.30
2019-03-15T20:26:55.951Z,94319.59
2019-03-15T20:29:25.335Z,94313.77
2019-03-15T20:31:54.745Z,94307.13
2019-03-15T20:34:24.096Z,94318.16
2019-03-15T20:36:53.448Z,94316.41
2019-03-15T20:39:22.923Z,94313.98
2019-03-15T20:41:52.286Z,94312.20
2019-03-15T20:44:28.397Z,94315.75
2019-03-15T20:46:52.746Z,94311.25
2019-03-15T20:49:22.124Z,94307.03
2019-03-15T20:51:51.533Z,94312.25
2019-03-15T20:54:20.955Z,94314.01
2019-03-15T20:56:50.281Z,94308.99
2019-03-15T20:59:19.656Z,94311.40
2019-03-15T21:01:49.298Z,94316.85
2019-03-15T21:04:18.767Z,94317.00
2019-03-15T21:06:48.146Z,94313.13
2019-03-15T21:09:17.543Z,94309.08
2019-03-15T21:11:46.930Z,94307.57
2019-03-15T21:14:16.283Z,94307.27
2019-03-15T21:16:45.659Z,94303.06
2019-03-15T21:19:15.559Z,94307.73
2019-03-15T21:21:44.979Z,94309.00
2019-03-15T21:24:14.671Z,94314.16
2019-03-15T21:26:44.008Z,94321.41
2019-03-15T21:29:13.391Z,94322.70
2019-03-15T21:31:42.747Z,94318.97
2019-03-15T21:34:12.083Z,94321.36
2019-03-15T21:36:41.595Z,94320.41
2019-03-15T21:39:11.002Z,94311.38
2019-03-15T21:41:40.307Z,94310.99
2019-03-15T21:44:09.696Z,94316.59
2019-03-15T21:46:39.065Z,94311.30
2019-03-15T21:49:08.454Z,94317.44
2019-03-15T21:51:37.776Z,94317.76
2019-03-15T21:54:07.166Z,94324.23
2019-03-15T21:56:36.579Z,94325.36
2019-03-15T21:59:06.210Z,94327.81
2019-03-15T22:01:35.580Z,94330.22
2019-03-15T22:04:05.017Z,94334.77
2019-03-15T22:06:34.357Z,94327.32
2019-03-15T22:09:03.955Z,94329.30
2019-03-15T22:11:33.285Z,94334.21
2019-03-15T22:14:02.685Z,94335.45
2019-03-15T22:16:32.052Z,94335.89
2019-03-15T22:19:01.437Z,94335.57
2019-03-15T22:21:30.837Z,94346.23
2019-03-15T22:24:00.209Z,94349.77
2019-03-15T22:26:29.553Z,94342.18
2019-03-15T22:28:58.917Z,94344.94
2019-03-15T22:31:28.446Z,94337.37
2019-03-15T22:33:57.782Z,94337.71
2019-03-15T22:36:27.244Z,94332.22
2019-03-15T22:38:56.595Z,94331.72
2019-03-15T22:41:25.936Z,94329.28
2019-03-15T22:43:55.304Z,94324.48
2019-03-15T22:46:24.666Z,94327.63
2019-03-15T22:48:54.020Z,94325.45
2019-03-15T22:51:23.356Z,94324.98
2019-03-15T22:53:52.742Z,94325.46
2019-03-15T22:56:22.099Z,94329.06
2019-03-15T22:58:51.431Z,94319.56
2019-03-15T23:01:30.102Z,94322.80
2019-03-15T23:03:51.919Z,94318.62
2019-03-15T23:06:21.238Z,94319.84
2019-03-15T23:08:50.552Z,94316.73
2019-03-15T23:11:19.963Z,94317.98
2019-03-15T23:13:49.296Z,94313.36
2019-03-15T23:16:18.623Z,94314.63
2019-03-15T23:18:48.065Z,94323.82
2019-03-15T23:21:17.415Z,94318.77
2019-03-15T23:23:46.819Z,94314.96
2019-03-15T23:26:16.184Z,94325.11
2019-03-15T23:28:47.286Z,94324.61
2019-03-15T23:31:16.903Z,94324.35
2019-03-15T23:33:46.307Z,94340.17
2019-03-15T23:36:15.653Z,94325.52
2019-03-15T23:38:45.143Z,94326.19
2019-03-15T23:41:14.498Z,94324.17
2019-03-15T23:43:43.831Z,94316.23
2019-03-15T23:46:13.200Z,94312.72
2019-03-15T23:48:42.526Z,94313.69
2019-03-15T23:51:11.905Z,94302.11
2019-03-15T23:53:41.265Z,94298.86
2019-03-15T23:56:10.643Z,94300.98
2019-03-15T23:58:39.993Z,94299.70
